Clovis/Cannon AFB, New Mexico
Current Conditions -  °F | °C
As of 2:58 PM on Tuesday 21 Oct 2014 (Local Time) from KCVS Reporting Station
Clear Clear  
Wind Chill: 72°   Ceiling: Unl
Heat Index: 72°   Visibility: 10mi
Dew Point: 49°   Wind: 9mph
Humidity: 44%   Direction: 180°S
Pressure: 30.07"   Gusts: NA
Location:  34.38°N, 103.32°W
Report Text: KCVS 212058Z AUTO 18008KT 10SM CLR 22/09 A3007 RMK AO2 CIG 085 RWY04 SLP141 T02220093 57023 $
Loading
Personal Weather Stations






























Interactive Weather Map
Tropical Storm Tracking
New forecast layout! Learn more

10-Day Weather Forecast

Advertisements
Track Severe Weather on mobile